sensor_id;sensor_type;location;lat;lon;timestamp;temperature;humidity
34406;DHT22;20658;45.630;8.886;2022-08-21T00:01:58;23.00;40.80
34406;DHT22;20658;45.630;8.886;2022-08-21T00:04:33;23.00;41.30
34406;DHT22;20658;45.630;8.886;2022-08-21T00:07:06;23.00;41.40
34406;DHT22;20658;45.630;8.886;2022-08-21T00:09:40;22.90;42.30
34406;DHT22;20658;45.630;8.886;2022-08-21T00:12:14;23.00;42.40
34406;DHT22;20658;45.630;8.886;2022-08-21T00:14:47;22.90;42.20
34406;DHT22;20658;45.630;8.886;2022-08-21T00:17:23;22.90;42.20
34406;DHT22;20658;45.630;8.886;2022-08-21T00:19:58;22.80;42.00
34406;DHT22;20658;45.630;8.886;2022-08-21T00:22:32;22.80;42.50
34406;DHT22;20658;45.630;8.886;2022-08-21T00:25:07;22.70;42.60
34406;DHT22;20658;45.630;8.886;2022-08-21T00:27:42;22.60;42.40
34406;DHT22;20658;45.630;8.886;2022-08-21T00:30:19;22.70;42.20
34406;DHT22;20658;45.630;8.886;2022-08-21T00:32:54;22.70;41.90
34406;DHT22;20658;45.630;8.886;2022-08-21T00:35:33;22.80;41.70
34406;DHT22;20658;45.630;8.886;2022-08-21T00:38:09;22.90;41.70
34406;DHT22;20658;45.630;8.886;2022-08-21T00:40:47;22.90;41.60
34406;DHT22;20658;45.630;8.886;2022-08-21T00:43:25;22.90;41.50
34406;DHT22;20658;45.630;8.886;2022-08-21T00:46:00;22.90;41.60
34406;DHT22;20658;45.630;8.886;2022-08-21T00:48:34;22.80;41.60
34406;DHT22;20658;45.630;8.886;2022-08-21T00:51:14;22.90;41.70
34406;DHT22;20658;45.630;8.886;2022-08-21T00:53:57;22.80;41.90
34406;DHT22;20658;45.630;8.886;2022-08-21T00:56:33;22.80;42.00
34406;DHT22;20658;45.630;8.886;2022-08-21T00:59:06;22.80;42.00
34406;DHT22;20658;45.630;8.886;2022-08-21T01:01:40;22.80;41.90
34406;DHT22;20658;45.630;8.886;2022-08-21T01:04:14;22.70;41.90
34406;DHT22;20658;45.630;8.886;2022-08-21T01:06:49;22.70;42.00
34406;DHT22;20658;45.630;8.886;2022-08-21T01:09:18;22.60;42.00
34406;DHT22;20658;45.630;8.886;2022-08-21T01:11:52;22.60;42.40
34406;DHT22;20658;45.630;8.886;2022-08-21T01:14:26;22.60;42.70
34406;DHT22;20658;45.630;8.886;2022-08-21T01:17:01;22.50;42.60
34406;DHT22;20658;45.630;8.886;2022-08-21T01:19:36;22.50;42.70
34406;DHT22;20658;45.630;8.886;2022-08-21T01:22:10;22.40;42.70
34406;DHT22;20658;45.630;8.886;2022-08-21T01:24:44;22.40;42.70
34406;DHT22;20658;45.630;8.886;2022-08-21T01:27:18;22.40;42.80
34406;DHT22;20658;45.630;8.886;2022-08-21T01:29:57;22.40;42.80
34406;DHT22;20658;45.630;8.886;2022-08-21T01:32:32;22.40;42.60
34406;DHT22;20658;45.630;8.886;2022-08-21T01:35:06;22.30;42.60
34406;DHT22;20658;45.630;8.886;2022-08-21T01:37:42;22.40;42.60
34406;DHT22;20658;45.630;8.886;2022-08-21T01:40:17;22.30;42.70
34406;DHT22;20658;45.630;8.886;2022-08-21T01:42:51;22.30;42.80
34406;DHT22;20658;45.630;8.886;2022-08-21T01:45:25;22.30;42.80
34406;DHT22;20658;45.630;8.886;2022-08-21T01:47:58;22.20;43.00
34406;DHT22;20658;45.630;8.886;2022-08-21T01:50:32;22.20;43.00
34406;DHT22;20658;45.630;8.886;2022-08-21T01:53:07;22.20;43.00
34406;DHT22;20658;45.630;8.886;2022-08-21T01:55:41;22.10;43.20
34406;DHT22;20658;45.630;8.886;2022-08-21T01:58:14;22.10;43.30
34406;DHT22;20658;45.630;8.886;2022-08-21T02:00:48;22.00;44.00
34406;DHT22;20658;45.630;8.886;2022-08-21T02:03:19;21.90;44.60
34406;DHT22;20658;45.630;8.886;2022-08-21T02:05:52;21.90;44.70
34406;DHT22;20658;45.630;8.886;2022-08-21T02:08:29;21.80;45.20
34406;DHT22;20658;45.630;8.886;2022-08-21T02:11:02;21.80;44.90
34406;DHT22;20658;45.630;8.886;2022-08-21T02:13:36;21.80;44.90
34406;DHT22;20658;45.630;8.886;2022-08-21T02:16:10;21.80;44.90
34406;DHT22;20658;45.630;8.886;2022-08-21T02:18:44;21.80;45.10
34406;DHT22;20658;45.630;8.886;2022-08-21T02:21:17;21.70;45.00
34406;DHT22;20658;45.630;8.886;2022-08-21T02:23:52;21.70;45.00
34406;DHT22;20658;45.630;8.886;2022-08-21T02:26:26;21.70;45.10
34406;DHT22;20658;45.630;8.886;2022-08-21T02:28:55;21.70;45.00
34406;DHT22;20658;45.630;8.886;2022-08-21T02:31:28;21.70;45.00
34406;DHT22;20658;45.630;8.886;2022-08-21T02:34:03;21.60;44.40
34406;DHT22;20658;45.630;8.886;2022-08-21T02:36:36;21.70;44.30
34406;DHT22;20658;45.630;8.886;2022-08-21T02:39:11;21.70;44.20
34406;DHT22;20658;45.630;8.886;2022-08-21T02:41:44;21.70;44.00
34406;DHT22;20658;45.630;8.886;2022-08-21T02:44:18;21.80;44.10
34406;DHT22;20658;45.630;8.886;2022-08-21T02:46:51;21.70;44.10
34406;DHT22;20658;45.630;8.886;2022-08-21T02:49:25;21.70;44.30
34406;DHT22;20658;45.630;8.886;2022-08-21T02:51:58;21.70;44.50
34406;DHT22;20658;45.630;8.886;2022-08-21T02:54:33;21.70;44.20
34406;DHT22;20658;45.630;8.886;2022-08-21T02:57:07;21.70;44.20
34406;DHT22;20658;45.630;8.886;2022-08-21T02:59:41;21.70;44.80
34406;DHT22;20658;45.630;8.886;2022-08-21T03:02:14;21.70;44.90
34406;DHT22;20658;45.630;8.886;2022-08-21T03:04:47;21.60;44.80
34406;DHT22;20658;45.630;8.886;2022-08-21T03:07:21;21.60;45.00
34406;DHT22;20658;45.630;8.886;2022-08-21T03:09:56;21.50;45.20
34406;DHT22;20658;45.630;8.886;2022-08-21T03:12:29;21.40;45.40
34406;DHT22;20658;45.630;8.886;2022-08-21T03:14:58;21.50;45.30
34406;DHT22;20658;45.630;8.886;2022-08-21T03:17:31;21.40;45.20
34406;DHT22;20658;45.630;8.886;2022-08-21T03:20:07;21.30;45.30
34406;DHT22;20658;45.630;8.886;2022-08-21T03:22:42;21.30;45.10
34406;DHT22;20658;45.630;8.886;2022-08-21T03:25:17;21.30;45.30
34406;DHT22;20658;45.630;8.886;2022-08-21T03:27:52;21.30;45.10
34406;DHT22;20658;45.630;8.886;2022-08-21T03:30:26;21.30;45.20
34406;DHT22;20658;45.630;8.886;2022-08-21T03:33:00;21.30;45.00
34406;DHT22;20658;45.630;8.886;2022-08-21T03:35:34;21.30;45.00
34406;DHT22;20658;45.630;8.886;2022-08-21T03:38:07;21.20;45.80
34406;DHT22;20658;45.630;8.886;2022-08-21T03:40:43;21.20;46.70
34406;DHT22;20658;45.630;8.886;2022-08-21T03:43:16;21.00;46.90
34406;DHT22;20658;45.630;8.886;2022-08-21T03:45:50;21.00;47.30
34406;DHT22;20658;45.630;8.886;2022-08-21T03:48:24;20.90;47.30
34406;DHT22;20658;45.630;8.886;2022-08-21T03:50:57;20.90;47.30
34406;DHT22;20658;45.630;8.886;2022-08-21T03:53:31;20.80;47.70
34406;DHT22;20658;45.630;8.886;2022-08-21T03:56:06;20.80;47.60
34406;DHT22;20658;45.630;8.886;2022-08-21T03:58:40;20.80;47.30
34406;DHT22;20658;45.630;8.886;2022-08-21T04:01:13;20.80;47.40
34406;DHT22;20658;45.630;8.886;2022-08-21T04:03:47;20.70;47.20
34406;DHT22;20658;45.630;8.886;2022-08-21T04:06:20;20.60;47.90
34406;DHT22;20658;45.630;8.886;2022-08-21T04:08:54;20.60;47.90
34406;DHT22;20658;45.630;8.886;2022-08-21T04:11:28;20.60;47.70
34406;DHT22;20658;45.630;8.886;2022-08-21T04:14:02;20.50;47.80
34406;DHT22;20658;45.630;8.886;2022-08-21T04:16:36;20.50;48.30
34406;DHT22;20658;45.630;8.886;2022-08-21T04:19:10;20.50;49.40
34406;DHT22;20658;45.630;8.886;2022-08-21T04:21:44;20.50;49.10
34406;DHT22;20658;45.630;8.886;2022-08-21T04:24:18;20.50;49.30
34406;DHT22;20658;45.630;8.886;2022-08-21T04:26:53;20.50;49.40
34406;DHT22;20658;45.630;8.886;2022-08-21T04:29:26;20.50;49.40
34406;DHT22;20658;45.630;8.886;2022-08-21T04:32:00;20.50;49.40
34406;DHT22;20658;45.630;8.886;2022-08-21T04:34:33;20.50;49.80
34406;DHT22;20658;45.630;8.886;2022-08-21T04:37:07;20.40;49.50
34406;DHT22;20658;45.630;8.886;2022-08-21T04:39:40;20.50;49.20
34406;DHT22;20658;45.630;8.886;2022-08-21T04:42:16;20.40;48.90
34406;DHT22;20658;45.630;8.886;2022-08-21T04:44:49;20.40;48.60
34406;DHT22;20658;45.630;8.886;2022-08-21T04:47:23;20.40;48.80
34406;DHT22;20658;45.630;8.886;2022-08-21T04:49:57;20.40;49.10
34406;DHT22;20658;45.630;8.886;2022-08-21T04:52:31;20.40;48.80
34406;DHT22;20658;45.630;8.886;2022-08-21T04:55:01;20.40;48.50
34406;DHT22;20658;45.630;8.886;2022-08-21T04:57:36;20.30;49.40
34406;DHT22;20658;45.630;8.886;2022-08-21T05:00:10;20.40;50.10
34406;DHT22;20658;45.630;8.886;2022-08-21T05:02:46;20.40;50.00
34406;DHT22;20658;45.630;8.886;2022-08-21T05:05:20;20.30;50.40
34406;DHT22;20658;45.630;8.886;2022-08-21T05:07:54;20.40;50.10
34406;DHT22;20658;45.630;8.886;2022-08-21T05:10:28;20.30;50.00
34406;DHT22;20658;45.630;8.886;2022-08-21T05:13:06;20.40;50.00
34406;DHT22;20658;45.630;8.886;2022-08-21T05:15:40;20.40;50.00
34406;DHT22;20658;45.630;8.886;2022-08-21T05:18:09;20.40;49.80
34406;DHT22;20658;45.630;8.886;2022-08-21T05:20:43;20.50;50.00
34406;DHT22;20658;45.630;8.886;2022-08-21T05:23:17;20.50;49.60
34406;DHT22;20658;45.630;8.886;2022-08-21T05:25:52;20.50;49.50
34406;DHT22;20658;45.630;8.886;2022-08-21T05:28:27;20.60;49.00
34406;DHT22;20658;45.630;8.886;2022-08-21T05:31:00;20.70;48.50
34406;DHT22;20658;45.630;8.886;2022-08-21T05:33:34;20.80;48.30
34406;DHT22;20658;45.630;8.886;2022-08-21T05:36:07;20.90;48.10
34406;DHT22;20658;45.630;8.886;2022-08-21T05:38:41;21.00;47.90
34406;DHT22;20658;45.630;8.886;2022-08-21T05:41:15;21.10;47.60
34406;DHT22;20658;45.630;8.886;2022-08-21T05:43:50;21.40;47.00
34406;DHT22;20658;45.630;8.886;2022-08-21T05:46:23;21.70;46.10
34406;DHT22;20658;45.630;8.886;2022-08-21T05:48:57;22.00;45.40
34406;DHT22;20658;45.630;8.886;2022-08-21T05:51:30;22.20;45.00
34406;DHT22;20658;45.630;8.886;2022-08-21T05:54:04;22.40;44.30
34406;DHT22;20658;45.630;8.886;2022-08-21T05:56:37;22.70;44.10
34406;DHT22;20658;45.630;8.886;2022-08-21T05:59:12;22.90;43.60
34406;DHT22;20658;45.630;8.886;2022-08-21T06:01:45;23.10;43.30
34406;DHT22;20658;45.630;8.886;2022-08-21T06:04:19;23.20;42.90
34406;DHT22;20658;45.630;8.886;2022-08-21T06:06:52;23.40;42.70
34406;DHT22;20658;45.630;8.886;2022-08-21T06:09:26;23.60;42.50
34406;DHT22;20658;45.630;8.886;2022-08-21T06:12:04;23.80;42.00
34406;DHT22;20658;45.630;8.886;2022-08-21T06:14:40;23.90;41.40
34406;DHT22;20658;45.630;8.886;2022-08-21T06:17:14;24.10;41.00
34406;DHT22;20658;45.630;8.886;2022-08-21T06:19:50;24.30;41.10
34406;DHT22;20658;45.630;8.886;2022-08-21T06:22:24;24.40;40.30
34406;DHT22;20658;45.630;8.886;2022-08-21T06:24:57;24.60;40.10
34406;DHT22;20658;45.630;8.886;2022-08-21T06:27:31;24.80;40.10
34406;DHT22;20658;45.630;8.886;2022-08-21T06:30:07;25.00;39.70
34406;DHT22;20658;45.630;8.886;2022-08-21T06:32:41;25.20;39.10
34406;DHT22;20658;45.630;8.886;2022-08-21T06:35:15;25.30;39.00
34406;DHT22;20658;45.630;8.886;2022-08-21T06:37:48;25.40;38.70
34406;DHT22;20658;45.630;8.886;2022-08-21T06:40:21;25.40;38.80
34406;DHT22;20658;45.630;8.886;2022-08-21T06:42:55;25.50;38.10
34406;DHT22;20658;45.630;8.886;2022-08-21T06:45:30;25.60;38.30
34406;DHT22;20658;45.630;8.886;2022-08-21T06:48:04;25.60;37.90
34406;DHT22;20658;45.630;8.886;2022-08-21T06:50:38;25.80;37.80
34406;DHT22;20658;45.630;8.886;2022-08-21T06:53:13;26.00;38.30
34406;DHT22;20658;45.630;8.886;2022-08-21T06:55:48;26.10;37.90
34406;DHT22;20658;45.630;8.886;2022-08-21T06:58:22;26.20;37.80
34406;DHT22;20658;45.630;8.886;2022-08-21T07:00:57;26.20;37.30
34406;DHT22;20658;45.630;8.886;2022-08-21T07:03:33;26.40;37.20
34406;DHT22;20658;45.630;8.886;2022-08-21T07:06:03;26.60;37.10
34406;DHT22;20658;45.630;8.886;2022-08-21T07:08:38;26.70;36.20
34406;DHT22;20658;45.630;8.886;2022-08-21T07:11:17;26.80;35.90
34406;DHT22;20658;45.630;8.886;2022-08-21T07:13:52;27.00;36.40
34406;DHT22;20658;45.630;8.886;2022-08-21T07:16:28;26.90;34.60
34406;DHT22;20658;45.630;8.886;2022-08-21T07:19:01;26.90;34.70
34406;DHT22;20658;45.630;8.886;2022-08-21T07:21:34;26.80;34.50
34406;DHT22;20658;45.630;8.886;2022-08-21T07:24:08;26.90;34.50
34406;DHT22;20658;45.630;8.886;2022-08-21T07:26:42;26.80;34.70
34406;DHT22;20658;45.630;8.886;2022-08-21T07:29:15;26.90;34.70
34406;DHT22;20658;45.630;8.886;2022-08-21T07:31:50;26.90;34.00
34406;DHT22;20658;45.630;8.886;2022-08-21T07:34:23;27.20;34.80
34406;DHT22;20658;45.630;8.886;2022-08-21T07:36:57;27.20;35.00
34406;DHT22;20658;45.630;8.886;2022-08-21T07:39:30;27.40;35.20
34406;DHT22;20658;45.630;8.886;2022-08-21T07:42:04;27.60;34.30
34406;DHT22;20658;45.630;8.886;2022-08-21T07:44:38;27.60;34.00
34406;DHT22;20658;45.630;8.886;2022-08-21T07:47:12;27.90;34.20
34406;DHT22;20658;45.630;8.886;2022-08-21T07:49:46;28.10;33.80
34406;DHT22;20658;45.630;8.886;2022-08-21T07:52:19;28.00;33.50
34406;DHT22;20658;45.630;8.886;2022-08-21T07:54:53;28.30;33.30
34406;DHT22;20658;45.630;8.886;2022-08-21T07:57:26;28.40;32.80
34406;DHT22;20658;45.630;8.886;2022-08-21T08:00:00;28.40;32.70
34406;DHT22;20658;45.630;8.886;2022-08-21T08:02:39;28.50;33.00
34406;DHT22;20658;45.630;8.886;2022-08-21T08:05:13;28.60;32.70
34406;DHT22;20658;45.630;8.886;2022-08-21T08:07:47;28.70;32.80
34406;DHT22;20658;45.630;8.886;2022-08-21T08:10:22;28.90;32.00
34406;DHT22;20658;45.630;8.886;2022-08-21T08:12:56;29.00;32.70
34406;DHT22;20658;45.630;8.886;2022-08-21T08:15:30;29.10;32.10
34406;DHT22;20658;45.630;8.886;2022-08-21T08:18:05;29.20;32.10
34406;DHT22;20658;45.630;8.886;2022-08-21T08:20:39;29.40;32.10
34406;DHT22;20658;45.630;8.886;2022-08-21T08:23:14;29.30;32.10
34406;DHT22;20658;45.630;8.886;2022-08-21T08:25:47;29.50;32.20
34406;DHT22;20658;45.630;8.886;2022-08-21T08:28:21;29.60;31.80
34406;DHT22;20658;45.630;8.886;2022-08-21T08:30:49;29.80;31.10
34406;DHT22;20658;45.630;8.886;2022-08-21T08:33:24;29.80;31.30
34406;DHT22;20658;45.630;8.886;2022-08-21T08:35:59;30.00;31.20
34406;DHT22;20658;45.630;8.886;2022-08-21T08:38:33;29.70;30.70
34406;DHT22;20658;45.630;8.886;2022-08-21T08:41:10;29.70;30.80
34406;DHT22;20658;45.630;8.886;2022-08-21T08:43:50;29.90;30.80
34406;DHT22;20658;45.630;8.886;2022-08-21T08:46:31;29.80;30.00
34406;DHT22;20658;45.630;8.886;2022-08-21T08:49:13;29.80;30.40
34406;DHT22;20658;45.630;8.886;2022-08-21T08:51:53;30.10;30.70
34406;DHT22;20658;45.630;8.886;2022-08-21T08:54:33;30.50;30.50
34406;DHT22;20658;45.630;8.886;2022-08-21T08:57:14;30.30;29.70
34406;DHT22;20658;45.630;8.886;2022-08-21T08:59:51;30.30;30.00
34406;DHT22;20658;45.630;8.886;2022-08-21T09:02:27;30.30;30.40
34406;DHT22;20658;45.630;8.886;2022-08-21T09:05:02;30.60;29.70
34406;DHT22;20658;45.630;8.886;2022-08-21T09:07:43;31.00;30.20
34406;DHT22;20658;45.630;8.886;2022-08-21T09:10:35;31.10;29.70
34406;DHT22;20658;45.630;8.886;2022-08-21T09:13:26;31.10;28.90
34406;DHT22;20658;45.630;8.886;2022-08-21T09:16:11;30.90;29.00
34406;DHT22;20658;45.630;8.886;2022-08-21T09:18:54;31.10;29.30
34406;DHT22;20658;45.630;8.886;2022-08-21T09:21:43;30.80;28.90
34406;DHT22;20658;45.630;8.886;2022-08-21T09:24:29;30.40;29.20
34406;DHT22;20658;45.630;8.886;2022-08-21T09:27:08;30.60;29.30
34406;DHT22;20658;45.630;8.886;2022-08-21T09:29:47;30.70;28.80
34406;DHT22;20658;45.630;8.886;2022-08-21T09:32:25;30.90;28.90
34406;DHT22;20658;45.630;8.886;2022-08-21T09:35:05;31.10;28.90
34406;DHT22;20658;45.630;8.886;2022-08-21T09:37:51;31.30;29.20
34406;DHT22;20658;45.630;8.886;2022-08-21T09:40:35;31.60;28.50
34406;DHT22;20658;45.630;8.886;2022-08-21T09:43:17;31.90;28.00
34406;DHT22;20658;45.630;8.886;2022-08-21T09:46:03;31.80;26.80
34406;DHT22;20658;45.630;8.886;2022-08-21T09:48:41;32.00;28.00
34406;DHT22;20658;45.630;8.886;2022-08-21T09:51:18;32.20;27.40
34406;DHT22;20658;45.630;8.886;2022-08-21T09:53:53;32.20;26.90
34406;DHT22;20658;45.630;8.886;2022-08-21T09:56:31;32.20;27.20
34406;DHT22;20658;45.630;8.886;2022-08-21T09:59:27;32.30;27.20
34406;DHT22;20658;45.630;8.886;2022-08-21T10:02:22;32.40;27.00
34406;DHT22;20658;45.630;8.886;2022-08-21T10:04:59;32.10;26.90
34406;DHT22;20658;45.630;8.886;2022-08-21T10:07:37;32.10;27.40
34406;DHT22;20658;45.630;8.886;2022-08-21T10:10:17;32.10;27.20
34406;DHT22;20658;45.630;8.886;2022-08-21T10:12:53;32.30;27.00
34406;DHT22;20658;45.630;8.886;2022-08-21T10:15:43;32.30;26.70
34406;DHT22;20658;45.630;8.886;2022-08-21T10:18:26;32.50;26.10
34406;DHT22;20658;45.630;8.886;2022-08-21T10:21:04;32.40;26.80
34406;DHT22;20658;45.630;8.886;2022-08-21T10:23:54;32.00;27.00
34406;DHT22;20658;45.630;8.886;2022-08-21T10:26:44;32.20;27.20
34406;DHT22;20658;45.630;8.886;2022-08-21T10:29:39;32.60;27.70
34406;DHT22;20658;45.630;8.886;2022-08-21T10:32:29;32.30;26.90
34406;DHT22;20658;45.630;8.886;2022-08-21T10:35:13;32.50;29.50
34406;DHT22;20658;45.630;8.886;2022-08-21T10:38:02;32.50;29.70
34406;DHT22;20658;45.630;8.886;2022-08-21T10:41:00;32.90;28.50
34406;DHT22;20658;45.630;8.886;2022-08-21T10:43:45;32.80;28.30
34406;DHT22;20658;45.630;8.886;2022-08-21T10:46:36;33.00;29.00
34406;DHT22;20658;45.630;8.886;2022-08-21T10:49:21;33.00;28.20
34406;DHT22;20658;45.630;8.886;2022-08-21T10:52:25;32.70;26.80
34406;DHT22;20658;45.630;8.886;2022-08-21T10:55:11;32.60;27.00
34406;DHT22;20658;45.630;8.886;2022-08-21T10:57:50;32.90;27.70
34406;DHT22;20658;45.630;8.886;2022-08-21T11:00:33;33.10;28.30
34406;DHT22;20658;45.630;8.886;2022-08-21T11:03:12;33.40;28.20
34406;DHT22;20658;45.630;8.886;2022-08-21T11:05:51;33.60;27.70
34406;DHT22;20658;45.630;8.886;2022-08-21T11:08:29;33.60;26.80
34406;DHT22;20658;45.630;8.886;2022-08-21T11:11:10;33.70;27.00
34406;DHT22;20658;45.630;8.886;2022-08-21T11:13:48;33.60;26.80
34406;DHT22;20658;45.630;8.886;2022-08-21T11:16:31;33.70;27.10
34406;DHT22;20658;45.630;8.886;2022-08-21T11:19:21;33.90;26.70
34406;DHT22;20658;45.630;8.886;2022-08-21T11:22:06;33.60;26.70
34406;DHT22;20658;45.630;8.886;2022-08-21T11:24:51;33.30;26.60
34406;DHT22;20658;45.630;8.886;2022-08-21T11:27:36;33.30;27.20
34406;DHT22;20658;45.630;8.886;2022-08-21T11:30:12;33.80;26.60
34406;DHT22;20658;45.630;8.886;2022-08-21T11:33:01;33.50;26.30
34406;DHT22;20658;45.630;8.886;2022-08-21T11:35:47;33.60;26.80
34406;DHT22;20658;45.630;8.886;2022-08-21T11:38:28;33.60;25.60
34406;DHT22;20658;45.630;8.886;2022-08-21T11:41:19;33.80;26.20
34406;DHT22;20658;45.630;8.886;2022-08-21T11:44:02;34.00;26.90
34406;DHT22;20658;45.630;8.886;2022-08-21T11:46:47;34.20;27.00
34406;DHT22;20658;45.630;8.886;2022-08-21T11:49:42;34.30;27.20
34406;DHT22;20658;45.630;8.886;2022-08-21T11:52:26;34.30;26.60
34406;DHT22;20658;45.630;8.886;2022-08-21T11:55:07;34.60;25.40
34406;DHT22;20658;45.630;8.886;2022-08-21T11:57:49;34.40;24.90
34406;DHT22;20658;45.630;8.886;2022-08-21T12:00:28;34.40;24.70
34406;DHT22;20658;45.630;8.886;2022-08-21T12:03:09;34.30;24.50
34406;DHT22;20658;45.630;8.886;2022-08-21T12:05:55;34.70;24.60
34406;DHT22;20658;45.630;8.886;2022-08-21T12:08:32;34.80;24.00
34406;DHT22;20658;45.630;8.886;2022-08-21T12:11:09;34.60;22.80
34406;DHT22;20658;45.630;8.886;2022-08-21T12:13:57;34.50;22.00
34406;DHT22;20658;45.630;8.886;2022-08-21T12:16:33;34.80;24.50
34406;DHT22;20658;45.630;8.886;2022-08-21T12:19:09;34.70;25.90
34406;DHT22;20658;45.630;8.886;2022-08-21T12:21:51;34.90;26.40
34406;DHT22;20658;45.630;8.886;2022-08-21T12:24:35;35.00;26.60
34406;DHT22;20658;45.630;8.886;2022-08-21T12:27:20;35.10;26.40
34406;DHT22;20658;45.630;8.886;2022-08-21T12:30:00;35.20;26.60
34406;DHT22;20658;45.630;8.886;2022-08-21T12:32:44;35.10;26.70
34406;DHT22;20658;45.630;8.886;2022-08-21T12:35:21;35.10;26.40
34406;DHT22;20658;45.630;8.886;2022-08-21T12:38:02;34.90;25.50
34406;DHT22;20658;45.630;8.886;2022-08-21T12:40:43;35.00;26.60
34406;DHT22;20658;45.630;8.886;2022-08-21T12:43:21;34.80;26.60
34406;DHT22;20658;45.630;8.886;2022-08-21T12:46:01;34.70;25.80
34406;DHT22;20658;45.630;8.886;2022-08-21T12:48:35;34.80;26.80
34406;DHT22;20658;45.630;8.886;2022-08-21T12:51:14;35.10;27.10
34406;DHT22;20658;45.630;8.886;2022-08-21T12:53:52;35.20;25.90
34406;DHT22;20658;45.630;8.886;2022-08-21T12:56:30;35.40;25.50
34406;DHT22;20658;45.630;8.886;2022-08-21T12:59:06;35.30;26.20
34406;DHT22;20658;45.630;8.886;2022-08-21T13:01:47;35.20;26.50
34406;DHT22;20658;45.630;8.886;2022-08-21T13:04:20;35.40;26.40
34406;DHT22;20658;45.630;8.886;2022-08-21T13:06:59;35.50;26.10
34406;DHT22;20658;45.630;8.886;2022-08-21T13:09:34;35.50;25.80
34406;DHT22;20658;45.630;8.886;2022-08-21T13:12:08;35.50;26.00
34406;DHT22;20658;45.630;8.886;2022-08-21T13:14:43;35.50;25.30
34406;DHT22;20658;45.630;8.886;2022-08-21T13:17:19;35.50;25.50
34406;DHT22;20658;45.630;8.886;2022-08-21T13:19:56;35.10;25.80
34406;DHT22;20658;45.630;8.886;2022-08-21T13:22:30;35.20;26.40
34406;DHT22;20658;45.630;8.886;2022-08-21T13:25:10;35.50;26.50
34406;DHT22;20658;45.630;8.886;2022-08-21T13:27:56;35.50;25.30
34406;DHT22;20658;45.630;8.886;2022-08-21T13:30:31;35.50;25.30
34406;DHT22;20658;45.630;8.886;2022-08-21T13:33:06;35.70;25.60
34406;DHT22;20658;45.630;8.886;2022-08-21T13:35:47;35.50;26.10
34406;DHT22;20658;45.630;8.886;2022-08-21T13:38:24;35.60;26.20
34406;DHT22;20658;45.630;8.886;2022-08-21T13:41:08;35.70;25.60
34406;DHT22;20658;45.630;8.886;2022-08-21T13:43:49;35.50;25.60
34406;DHT22;20658;45.630;8.886;2022-08-21T13:46:24;35.70;24.30
34406;DHT22;20658;45.630;8.886;2022-08-21T13:49:01;35.60;24.70
34406;DHT22;20658;45.630;8.886;2022-08-21T13:51:36;35.20;26.00
34406;DHT22;20658;45.630;8.886;2022-08-21T13:54:16;35.40;26.10
34406;DHT22;20658;45.630;8.886;2022-08-21T13:56:55;35.60;25.70
34406;DHT22;20658;45.630;8.886;2022-08-21T13:59:30;35.40;25.10
34406;DHT22;20658;45.630;8.886;2022-08-21T14:02:12;35.00;25.60
34406;DHT22;20658;45.630;8.886;2022-08-21T14:04:51;35.40;25.30
34406;DHT22;20658;45.630;8.886;2022-08-21T14:07:30;35.50;25.70
34406;DHT22;20658;45.630;8.886;2022-08-21T14:10:07;35.40;25.90
34406;DHT22;20658;45.630;8.886;2022-08-21T14:12:50;35.40;25.80
34406;DHT22;20658;45.630;8.886;2022-08-21T14:15:26;35.50;25.60
34406;DHT22;20658;45.630;8.886;2022-08-21T14:18:08;35.50;25.90
34406;DHT22;20658;45.630;8.886;2022-08-21T14:20:47;35.40;25.90
34406;DHT22;20658;45.630;8.886;2022-08-21T14:23:24;35.40;26.20
34406;DHT22;20658;45.630;8.886;2022-08-21T14:25:59;35.60;25.90
34406;DHT22;20658;45.630;8.886;2022-08-21T14:28:39;35.40;25.70
34406;DHT22;20658;45.630;8.886;2022-08-21T14:31:17;35.60;25.90
34406;DHT22;20658;45.630;8.886;2022-08-21T14:33:52;35.70;25.30
34406;DHT22;20658;45.630;8.886;2022-08-21T14:36:25;35.50;25.20
34406;DHT22;20658;45.630;8.886;2022-08-21T14:38:58;35.50;25.30
34406;DHT22;20658;45.630;8.886;2022-08-21T14:41:32;35.20;25.00
34406;DHT22;20658;45.630;8.886;2022-08-21T14:44:07;35.10;25.80
34406;DHT22;20658;45.630;8.886;2022-08-21T14:46:42;35.40;25.50
34406;DHT22;20658;45.630;8.886;2022-08-21T14:49:15;35.50;25.30
34406;DHT22;20658;45.630;8.886;2022-08-21T14:51:49;35.40;24.90
34406;DHT22;20658;45.630;8.886;2022-08-21T14:54:30;35.50;24.90
34406;DHT22;20658;45.630;8.886;2022-08-21T14:57:06;35.80;25.30
34406;DHT22;20658;45.630;8.886;2022-08-21T14:59:43;35.90;24.80
34406;DHT22;20658;45.630;8.886;2022-08-21T15:02:16;35.80;24.50
34406;DHT22;20658;45.630;8.886;2022-08-21T15:04:50;35.80;25.10
34406;DHT22;20658;45.630;8.886;2022-08-21T15:07:23;35.90;25.20
34406;DHT22;20658;45.630;8.886;2022-08-21T15:09:57;35.40;25.50
34406;DHT22;20658;45.630;8.886;2022-08-21T15:12:30;34.70;26.00
34406;DHT22;20658;45.630;8.886;2022-08-21T15:15:00;35.10;26.00
34406;DHT22;20658;45.630;8.886;2022-08-21T15:17:35;35.10;26.10
34406;DHT22;20658;45.630;8.886;2022-08-21T15:20:10;35.30;26.00
34406;DHT22;20658;45.630;8.886;2022-08-21T15:22:43;35.40;25.70
34406;DHT22;20658;45.630;8.886;2022-08-21T15:25:16;35.40;25.90
34406;DHT22;20658;45.630;8.886;2022-08-21T15:27:50;35.40;26.80
34406;DHT22;20658;45.630;8.886;2022-08-21T15:30:26;35.10;26.90
34406;DHT22;20658;45.630;8.886;2022-08-21T15:32:59;35.10;27.00
34406;DHT22;20658;45.630;8.886;2022-08-21T15:35:28;35.50;26.90
34406;DHT22;20658;45.630;8.886;2022-08-21T15:37:56;35.60;26.50
34406;DHT22;20658;45.630;8.886;2022-08-21T15:40:30;35.60;26.70
34406;DHT22;20658;45.630;8.886;2022-08-21T15:43:05;35.60;27.00
34406;DHT22;20658;45.630;8.886;2022-08-21T15:45:40;35.70;26.90
34406;DHT22;20658;45.630;8.886;2022-08-21T15:48:13;35.80;26.50
34406;DHT22;20658;45.630;8.886;2022-08-21T15:50:47;35.70;26.20
34406;DHT22;20658;45.630;8.886;2022-08-21T15:53:16;35.80;26.90
34406;DHT22;20658;45.630;8.886;2022-08-21T15:55:50;35.60;27.10
34406;DHT22;20658;45.630;8.886;2022-08-21T15:58:23;35.70;26.90
34406;DHT22;20658;45.630;8.886;2022-08-21T16:01:00;35.60;26.90
34406;DHT22;20658;45.630;8.886;2022-08-21T16:03:33;35.80;26.90
34406;DHT22;20658;45.630;8.886;2022-08-21T16:06:07;35.70;26.20
34406;DHT22;20658;45.630;8.886;2022-08-21T16:08:40;35.70;26.50
34406;DHT22;20658;45.630;8.886;2022-08-21T16:11:15;35.50;26.80
34406;DHT22;20658;45.630;8.886;2022-08-21T16:13:49;35.40;26.40
34406;DHT22;20658;45.630;8.886;2022-08-21T16:16:24;35.30;27.10
34406;DHT22;20658;45.630;8.886;2022-08-21T16:18:53;35.10;27.40
34406;DHT22;20658;45.630;8.886;2022-08-21T16:21:26;35.20;27.00
34406;DHT22;20658;45.630;8.886;2022-08-21T16:23:55;35.60;26.70
34406;DHT22;20658;45.630;8.886;2022-08-21T16:26:28;35.70;25.90
34406;DHT22;20658;45.630;8.886;2022-08-21T16:29:05;35.80;26.50